createdAt,value
2017-06-25T00:00:45.748Z,22.5
2017-06-25T00:01:45.769Z,22.5
2017-06-25T00:02:44.461Z,22.4
2017-06-25T00:03:44.156Z,22.4
2017-06-25T00:04:43.351Z,22.4
2017-06-25T00:05:42.546Z,22.4
2017-06-25T00:06:13.046Z,22.4
2017-06-25T00:06:43.545Z,22.4
2017-06-25T00:07:14.063Z,22.4
2017-06-25T00:07:44.565Z,22.4
2017-06-25T00:08:15.067Z,22.4
2017-06-25T00:08:45.567Z,22.3
2017-06-25T00:09:16.065Z,22.3
2017-06-25T00:10:39.410Z,22.3
2017-06-25T00:11:38.992Z,22.3
2017-06-25T00:12:38.818Z,22.3
2017-06-25T00:13:37.522Z,22.3
2017-06-25T00:14:37.224Z,22.3
2017-06-25T00:15:36.182Z,22.3
2017-06-25T00:16:35.641Z,22.3
2017-06-25T00:17:35.331Z,22.3
2017-06-25T00:18:34.773Z,22.3
2017-06-25T00:20:33.234Z,22.3
2017-06-25T00:21:32.920Z,22.3
2017-06-25T00:22:31.874Z,22.3
2017-06-25T00:23:31.573Z,22.3
2017-06-25T00:24:30.899Z,22.3
2017-06-25T00:25:29.977Z,22.2
2017-06-25T00:26:29.376Z,22.2
2017-06-25T00:27:28.951Z,22.2
2017-06-25T00:28:27.905Z,22.2
2017-06-25T00:29:27.484Z,22.2
2017-06-25T00:30:27.425Z,22.2
2017-06-25T00:31:26.069Z,22.2
2017-06-25T00:33:25.038Z,22.2
2017-06-25T00:34:24.000Z,22.2
2017-06-25T00:35:23.456Z,22.1
2017-06-25T00:36:23.285Z,22.1
2017-06-25T00:37:22.242Z,22.1
2017-06-25T00:38:21.818Z,22.1
2017-06-25T00:39:21.391Z,22.1
2017-06-25T00:40:20.463Z,22.1
2017-06-25T00:41:20.158Z,22.1
2017-06-25T00:42:19.605Z,22.1
2017-06-25T00:43:18.801Z,22.1
2017-06-25T00:44:17.990Z,22.1
2017-06-25T00:45:17.682Z,22.1
2017-06-25T00:46:16.872Z,22.1
2017-06-25T00:47:15.940Z,22.1
2017-06-25T00:48:15.882Z,22.1
2017-06-25T00:49:14.595Z,22.1
2017-06-25T00:50:14.177Z,22.1
2017-06-25T00:51:13.868Z,22.1
2017-06-25T00:52:13.081Z,22.1
2017-06-25T00:54:11.684Z,22.1
2017-06-25T00:55:10.888Z,22.1
2017-06-25T00:56:10.477Z,22.1
2017-06-25T00:57:09.675Z,22.1
2017-06-25T00:58:09.369Z,22.1
2017-06-25T00:59:08.558Z,22.1
2017-06-25T01:00:08.384Z,22.1
2017-06-25T01:01:07.074Z,22.1
2017-06-25T01:02:06.769Z,22
2017-06-25T01:03:05.845Z,22
2017-06-25T01:04:05.420Z,22
2017-06-25T01:05:04.635Z,22
2017-06-25T01:06:04.597Z,22
2017-06-25T01:07:03.292Z,22
2017-06-25T01:08:02.875Z,22
2017-06-25T01:09:02.064Z,22
2017-06-25T01:10:01.757Z,22
2017-06-25T01:11:00.830Z,22
2017-06-25T01:12:00.273Z,22
2017-06-25T01:12:59.477Z,22
2017-06-25T01:13:59.173Z,22
2017-06-25T01:14:58.362Z,22
2017-06-25T01:15:57.556Z,22
2017-06-25T01:16:57.248Z,22
2017-06-25T01:17:56.574Z,22
2017-06-25T01:18:55.641Z,22
2017-06-25T01:19:55.217Z,22
2017-06-25T01:20:54.407Z,22
2017-06-25T01:21:53.364Z,22
2017-06-25T01:22:53.210Z,22
2017-06-25T01:23:52.920Z,21.9
2017-06-25T01:24:52.674Z,21.9
2017-06-25T01:25:51.818Z,21.9
2017-06-25T01:26:50.508Z,21.9
2017-06-25T01:27:50.082Z,21.9
2017-06-25T01:28:49.278Z,21.9
2017-06-25T01:29:49.228Z,21.8
2017-06-25T01:30:48.315Z,21.8
2017-06-25T01:31:47.389Z,21.8
2017-06-25T01:32:46.579Z,21.8
2017-06-25T01:33:46.152Z,21.8
2017-06-25T01:34:45.340Z,21.8
2017-06-25T01:35:45.288Z,21.8
2017-06-25T01:36:43.981Z,21.8
2017-06-25T01:37:43.559Z,21.8
2017-06-25T01:38:42.745Z,21.8
2017-06-25T01:39:42.322Z,21.8
2017-06-25T01:40:41.521Z,21.8
2017-06-25T01:41:41.471Z,21.8
2017-06-25T01:42:39.937Z,21.8
2017-06-25T01:43:39.627Z,21.8
2017-06-25T01:44:39.202Z,21.8
2017-06-25T01:45:38.272Z,21.8
2017-06-25T01:46:38.433Z,21.8
2017-06-25T01:47:37.252Z,21.8
2017-06-25T01:48:35.963Z,21.8
2017-06-25T01:49:35.550Z,21.8
2017-06-25T01:50:35.248Z,21.8
2017-06-25T01:51:34.434Z,21.8
2017-06-25T01:52:33.901Z,21.8
2017-06-25T01:53:33.278Z,21.8
2017-06-25T01:54:32.473Z,21.7
2017-06-25T01:55:32.051Z,21.7
2017-06-25T01:56:31.244Z,21.7
2017-06-25T01:57:30.936Z,21.7
2017-06-25T01:58:30.192Z,21.7
2017-06-25T01:59:29.632Z,21.7
2017-06-25T02:00:28.704Z,21.7
2017-06-25T02:01:27.895Z,21.7
2017-06-25T02:02:27.607Z,21.7
2017-06-25T02:03:26.795Z,21.6
2017-06-25T02:04:25.869Z,21.6
2017-06-25T02:05:25.692Z,21.6
2017-06-25T02:06:24.879Z,21.6
2017-06-25T02:07:24.067Z,21.6
2017-06-25T02:08:23.712Z,21.6
2017-06-25T02:09:22.789Z,21.6
2017-06-25T02:10:22.482Z,21.6
2017-06-25T02:11:21.930Z,21.6
2017-06-25T02:12:21.112Z,21.6
2017-06-25T02:13:20.297Z,21.6
2017-06-25T02:14:19.490Z,21.6
2017-06-25T02:15:19.189Z,21.6
2017-06-25T02:16:18.380Z,21.6
2017-06-25T02:17:17.877Z,21.6
2017-06-25T02:19:16.460Z,21.6
2017-06-25T02:20:15.648Z,21.6
2017-06-25T02:21:15.340Z,21.6
2017-06-25T02:22:14.545Z,21.6
2017-06-25T02:23:13.994Z,21.5
2017-06-25T02:24:13.074Z,21.5
2017-06-25T02:25:12.761Z,21.5
2017-06-25T02:26:11.949Z,21.5
2017-06-25T02:27:11.144Z,21.5
2017-06-25T02:27:41.531Z,21.5
2017-06-25T02:29:10.172Z,21.6
2017-06-25T02:30:09.362Z,21.6
2017-06-25T02:31:08.549Z,21.5
2017-06-25T02:32:08.252Z,21.5
2017-06-25T02:33:07.451Z,21.3
2017-06-25T02:35:06.305Z,21.4
2017-06-25T02:36:05.508Z,21.4
2017-06-25T02:37:04.698Z,21.4
2017-06-25T02:38:03.891Z,21.4
2017-06-25T02:39:03.592Z,21.4
2017-06-25T02:40:02.784Z,21.3
2017-06-25T02:41:02.225Z,21.4
2017-06-25T02:42:01.426Z,21.4
2017-06-25T02:43:00.524Z,21.4
2017-06-25T02:44:00.104Z,21.4
2017-06-25T02:44:59.178Z,21.3
2017-06-25T02:46:05.028Z,21.3
2017-06-25T02:46:57.937Z,21.3
2017-06-25T02:47:57.636Z,21.3
2017-06-25T02:48:56.709Z,21.3
2017-06-25T02:49:56.417Z,21.3
2017-06-25T02:50:55.613Z,21.3
2017-06-25T02:51:55.059Z,21.3
2017-06-25T02:52:54.258Z,21.3
2017-06-25T02:53:53.456Z,21.3
2017-06-25T02:54:52.565Z,21.3
2017-06-25T02:55:52.260Z,21.3
2017-06-25T02:56:51.905Z,21.3
2017-06-25T02:57:51.355Z,21.3
2017-06-25T02:58:50.052Z,21.3
2017-06-25T02:59:49.752Z,21.2
2017-06-25T03:00:48.953Z,21.2
2017-06-25T03:01:48.148Z,21.2
2017-06-25T03:02:47.340Z,21.2
2017-06-25T03:03:47.293Z,21.2
2017-06-25T03:04:46.376Z,21.2
2017-06-25T03:05:45.456Z,21.2
2017-06-25T03:06:45.036Z,21.2
2017-06-25T03:07:44.334Z,21.2
2017-06-25T03:08:43.538Z,21.1
2017-06-25T03:09:42.986Z,21.1
2017-06-25T03:10:42.184Z,21.2
2017-06-25T03:11:41.287Z,21.2
2017-06-25T03:12:40.991Z,21.2
2017-06-25T03:13:40.188Z,21.2
2017-06-25T03:14:39.391Z,21.2
2017-06-25T03:15:39.347Z,21.1
2017-06-25T03:16:38.040Z,21.1
2017-06-25T03:17:37.746Z,21.1
2017-06-25T03:18:36.948Z,21.1
2017-06-25T03:19:36.146Z,21.1
2017-06-25T03:20:35.346Z,21.1
2017-06-25T03:22:34.183Z,21.1
2017-06-25T03:23:33.256Z,21.1
2017-06-25T03:24:33.515Z,21.1
2017-06-25T03:25:31.984Z,21.1
2017-06-25T03:26:31.566Z,21
2017-06-25T03:27:30.706Z,21
2017-06-25T03:28:30.166Z,21
2017-06-25T03:29:29.364Z,21
2017-06-25T03:30:28.947Z,21
2017-06-25T03:31:28.141Z,21
2017-06-25T03:32:27.104Z,21
2017-06-25T03:33:26.807Z,21
2017-06-25T03:34:26.317Z,21
2017-06-25T03:35:25.512Z,21
2017-06-25T03:36:24.703Z,21
2017-06-25T03:37:23.912Z,21
2017-06-25T03:38:23.105Z,21
2017-06-25T03:39:22.797Z,21
2017-06-25T03:40:22.243Z,21
2017-06-25T03:41:21.438Z,20.9
2017-06-25T03:42:20.635Z,20.9
2017-06-25T03:43:19.832Z,20.9
2017-06-25T03:44:18.912Z,20.9
2017-06-25T03:45:18.608Z,20.9
2017-06-25T03:47:17.341Z,20.9
2017-06-25T03:48:16.547Z,20.9
2017-06-25T03:49:15.742Z,20.9
2017-06-25T03:50:14.939Z,20.8
2017-06-25T03:51:14.640Z,20.8
2017-06-25T03:52:13.899Z,20.8
2017-06-25T03:54:12.743Z,20.8
2017-06-25T03:55:11.960Z,20.8
2017-06-25T03:56:11.160Z,20.8
2017-06-25T03:57:10.368Z,20.8
2017-06-25T03:58:09.563Z,20.8
2017-06-25T03:59:09.145Z,20.8
2017-06-25T04:00:08.594Z,20.6
2017-06-25T04:01:07.673Z,20.6
2017-06-25T04:03:06.139Z,20.6
2017-06-25T04:04:05.718Z,20.6
2017-06-25T04:05:04.688Z,20.6
2017-06-25T04:06:04.639Z,20.7
2017-06-25T04:07:03.331Z,20.7
2017-06-25T04:08:03.613Z,20.8
2017-06-25T04:09:02.308Z,20.8
2017-06-25T04:10:01.502Z,20.7
2017-06-25T04:11:00.580Z,20.7
2017-06-25T04:12:00.422Z,20.7
2017-06-25T04:12:59.621Z,20.7
2017-06-25T04:13:58.594Z,20.7
2017-06-25T04:14:58.296Z,20.8
2017-06-25T04:15:57.495Z,20.7
2017-06-25T04:16:56.688Z,20.7
2017-06-25T04:17:56.019Z,20.7
2017-06-25T04:19:54.365Z,20.7
2017-06-25T04:20:54.057Z,20.7
2017-06-25T04:21:53.268Z,20.7
2017-06-25T04:22:52.859Z,20.7
2017-06-25T04:25:51.089Z,20.6
2017-06-25T04:26:49.785Z,20.6
2017-06-25T04:27:49.493Z,20.6
2017-06-25T04:28:48.692Z,20.6
2017-06-25T04:29:47.890Z,20.6
2017-06-25T04:30:47.086Z,20.6
2017-06-25T04:31:47.038Z,20.6
2017-06-25T04:32:45.730Z,20.6
2017-06-25T04:33:44.928Z,20.6
2017-06-25T04:34:44.633Z,20.6
2017-06-25T04:35:43.831Z,20.6
2017-06-25T04:36:43.029Z,20.6
2017-06-25T04:37:42.742Z,20.6
2017-06-25T04:38:41.584Z,20.6
2017-06-25T04:39:41.052Z,20.6
2017-06-25T04:40:40.635Z,20.7
2017-06-25T04:41:39.714Z,20.7
2017-06-25T04:42:38.909Z,20.7
2017-06-25T04:43:38.234Z,20.7
2017-06-25T04:44:37.312Z,20.8
2017-06-25T04:45:37.012Z,20.8
2017-06-25T04:46:36.238Z,20.8
2017-06-25T04:47:35.430Z,20.8
2017-06-25T04:48:35.127Z,20.8
2017-06-25T04:49:34.576Z,20.8
2017-06-25T04:50:33.778Z,20.9
2017-06-25T04:51:32.980Z,20.9
2017-06-25T04:52:32.184Z,20.9
2017-06-25T04:53:31.376Z,21
2017-06-25T04:54:31.139Z,21
2017-06-25T04:55:30.469Z,21
2017-06-25T04:57:28.556Z,21
2017-06-25T04:58:28.258Z,21.1
2017-06-25T04:59:27.453Z,21.1
2017-06-25T05:00:26.675Z,21.1
2017-06-25T05:01:26.123Z,21.1
2017-06-25T05:02:25.316Z,21.1
2017-06-25T05:03:24.512Z,21.2
2017-06-25T05:04:24.273Z,21.2
2017-06-25T05:05:23.465Z,21.3
2017-06-25T05:06:22.663Z,21.2
2017-06-25T05:07:22.115Z,21.3
2017-06-25T05:08:20.955Z,21.3
2017-06-25T05:09:20.421Z,21.3
2017-06-25T05:10:19.624Z,21.3
2017-06-25T05:11:19.213Z,21.3
2017-06-25T05:12:18.409Z,21.3
2017-06-25T05:13:17.736Z,21.4
2017-06-25T05:14:16.693Z,21.4
2017-06-25T05:15:16.387Z,21.4
2017-06-25T05:16:15.730Z,21.5
2017-06-25T05:17:14.688Z,21.5
2017-06-25T05:18:14.387Z,21.5
2017-06-25T05:19:13.841Z,21.6
2017-06-25T05:20:12.925Z,21.6
2017-06-25T05:21:12.004Z,21.6
2017-06-25T05:22:11.230Z,21.6
2017-06-25T05:23:10.821Z,21.6
2017-06-25T05:23:41.208Z,21.6
2017-06-25T05:24:11.602Z,21.7
2017-06-25T05:25:09.669Z,21.7
2017-06-25T05:26:08.866Z,21.7
2017-06-25T05:27:08.068Z,21.8
2017-06-25T05:28:07.142Z,22
2017-06-25T05:29:06.610Z,22
2017-06-25T05:30:06.561Z,22
2017-06-25T05:31:04.902Z,22
2017-06-25T05:32:04.631Z,22
2017-06-25T05:33:03.891Z,22
2017-06-25T05:34:03.604Z,21.9
2017-06-25T05:35:02.804Z,21.9
2017-06-25T05:36:02.138Z,21.9
2017-06-25T05:37:01.332Z,21.8
2017-06-25T05:38:00.403Z,21.8
2017-06-25T05:39:00.103Z,21.8
2017-06-25T05:39:59.185Z,21.8
2017-06-25T05:40:58.891Z,21.8
2017-06-25T05:41:58.344Z,21.8
2017-06-25T05:42:57.533Z,21.8
2017-06-25T05:43:56.731Z,21.8
2017-06-25T05:44:55.816Z,21.8
2017-06-25T05:45:55.171Z,21.8
2017-06-25T05:46:54.660Z,21.8
2017-06-25T05:47:54.148Z,21.8
2017-06-25T05:48:53.344Z,21.8
2017-06-25T05:49:52.541Z,21.9
2017-06-25T05:50:51.616Z,21.9
2017-06-25T05:51:51.199Z,21.9
2017-06-25T05:52:50.787Z,22
2017-06-25T05:53:50.576Z,22
2017-06-25T05:54:49.158Z,22
2017-06-25T05:55:48.354Z,22
2017-06-25T05:56:48.048Z,22.1
2017-06-25T05:57:47.243Z,22.1
2017-06-25T05:58:46.317Z,22.1
2017-06-25T06:00:45.653Z,22.1
2017-06-25T06:01:44.341Z,22.1
2017-06-25T06:02:44.036Z,22.2
2017-06-25T06:03:43.229Z,22.2
2017-06-25T06:04:42.420Z,22.3
2017-06-25T06:05:41.630Z,22.3
2017-06-25T06:07:40.972Z,22.3
2017-06-25T06:08:40.054Z,22.3
2017-06-25T06:09:39.134Z,22.4
2017-06-25T06:10:38.207Z,22.4
2017-06-25T06:11:37.788Z,22.4
2017-06-25T06:12:36.979Z,22.4
2017-06-25T06:13:36.577Z,22.5
2017-06-25T06:14:35.766Z,22.5
2017-06-25T06:15:34.847Z,22.6
2017-06-25T06:16:34.450Z,22.6
2017-06-25T06:17:33.655Z,22.6
2017-06-25T06:18:33.352Z,22.6
2017-06-25T06:19:32.713Z,22.6
2017-06-25T06:20:31.910Z,22.6
2017-06-25T06:21:31.113Z,22.6
2017-06-25T06:22:30.312Z,22.6
2017-06-25T06:23:30.011Z,22.6
2017-06-25T06:24:28.973Z,22.6
2017-06-25T06:25:28.811Z,22.6
2017-06-25T06:26:27.902Z,22.6
2017-06-25T06:27:27.003Z,22.6
2017-06-25T06:29:25.976Z,22.6
2017-06-25T06:30:25.052Z,22.6
2017-06-25T06:32:24.396Z,22.7
2017-06-25T06:33:23.592Z,22.7
2017-06-25T06:34:22.787Z,22.7
2017-06-25T06:35:21.985Z,22.7
2017-06-25T06:36:20.950Z,22.7
2017-06-25T06:37:20.651Z,22.8
2017-06-25T06:39:19.874Z,22.8
2017-06-25T06:40:18.444Z,22.8
2017-06-25T06:41:18.027Z,22.8
2017-06-25T06:42:17.611Z,22.8
2017-06-25T06:43:16.694Z,22.9
2017-06-25T06:44:16.277Z,23
2017-06-25T06:45:15.605Z,23
2017-06-25T06:46:14.799Z,23
2017-06-25T06:47:14.265Z,23
2017-06-25T06:48:13.458Z,23.1
2017-06-25T06:49:12.923Z,23.1
2017-06-25T06:50:12.509Z,23.1
2017-06-25T06:51:11.966Z,23.1
2017-06-25T06:52:10.930Z,23.2
2017-06-25T06:53:10.631Z,23.3
2017-06-25T06:54:09.826Z,23.3
2017-06-25T06:55:09.024Z,23.3
2017-06-25T06:56:08.611Z,23.3
2017-06-25T06:57:08.066Z,23.3
2017-06-25T06:58:07.152Z,23.3
2017-06-25T06:59:06.348Z,23.3
2017-06-25T07:00:05.938Z,23.3
2017-06-25T07:01:05.482Z,23.4
2017-06-25T07:02:04.690Z,23.4
2017-06-25T07:03:04.153Z,23.4
2017-06-25T07:04:03.348Z,23.5
2017-06-25T07:05:02.545Z,23.5
2017-06-25T07:06:02.012Z,23.5
2017-06-25T07:07:01.713Z,23.5
2017-06-25T07:08:00.789Z,23.6
2017-06-25T07:09:00.751Z,23.6
2017-06-25T07:09:59.504Z,23.6
2017-06-25T07:10:59.205Z,23.6
2017-06-25T07:11:58.289Z,23.7
2017-06-25T07:12:57.487Z,23.7
2017-06-25T07:13:57.072Z,23.7
2017-06-25T07:14:56.518Z,23.7
2017-06-25T07:15:55.720Z,23.7
2017-06-25T07:16:55.251Z,23.8
2017-06-25T07:17:54.448Z,23.8
2017-06-25T07:18:54.140Z,23.8
2017-06-25T07:19:53.222Z,23.8
2017-06-25T07:20:53.177Z,23.9
2017-06-25T07:21:51.870Z,24
2017-06-25T07:22:51.459Z,24
2017-06-25T07:23:50.660Z,24
2017-06-25T07:25:49.399Z,24
2017-06-25T07:26:49.239Z,24
2017-06-25T07:27:48.434Z,24
2017-06-25T07:28:47.398Z,24
2017-06-25T07:29:46.985Z,24.1
2017-06-25T07:30:46.685Z,24.1
2017-06-25T07:31:45.880Z,24.1
2017-06-25T07:32:45.209Z,24.1
2017-06-25T07:33:44.915Z,24.1
2017-06-25T07:34:43.993Z,24.2
2017-06-25T07:35:43.571Z,24.2
2017-06-25T07:36:42.775Z,24.3
2017-06-25T07:37:42.038Z,24.3
2017-06-25T07:38:41.755Z,24.3
2017-06-25T07:39:40.953Z,24.3
2017-06-25T07:40:40.654Z,24.3
2017-06-25T07:41:11.088Z,24.3
2017-06-25T07:41:42.046Z,24.3
2017-06-25T07:42:12.113Z,24.3
2017-06-25T07:42:42.384Z,24.4
2017-06-25T07:43:12.895Z,24.4
2017-06-25T07:44:38.515Z,24.5
2017-06-25T07:45:37.091Z,24.5
2017-06-25T07:47:36.065Z,24.5
2017-06-25T07:49:35.055Z,24.5
2017-06-25T07:50:34.393Z,24.5
2017-06-25T07:51:33.480Z,24.5
2017-06-25T07:52:33.064Z,24.5
2017-06-25T07:53:32.759Z,24.6
2017-06-25T07:54:31.720Z,24.6
2017-06-25T07:55:31.429Z,24.6
2017-06-25T07:56:31.460Z,24.6
2017-06-25T07:57:30.158Z,24.6
2017-06-25T07:58:29.856Z,24.6
2017-06-25T07:59:28.578Z,24.6
2017-06-25T08:00:28.290Z,24.6
2017-06-25T08:01:27.874Z,24.6
2017-06-25T08:02:27.320Z,24.6
2017-06-25T08:03:26.580Z,24.7
2017-06-25T08:04:26.284Z,24.7
2017-06-25T08:05:25.420Z,24.7
2017-06-25T08:06:25.115Z,24.9
2017-06-25T08:07:24.308Z,24.8
2017-06-25T08:08:24.144Z,24.8
2017-06-25T08:09:23.223Z,24.8
2017-06-25T08:10:22.428Z,24.9
2017-06-25T08:11:22.135Z,24.9
2017-06-25T08:12:21.337Z,25
2017-06-25T08:13:21.034Z,25
2017-06-25T08:14:20.484Z,25
2017-06-25T08:15:19.685Z,25
2017-06-25T08:16:18.778Z,25.1
2017-06-25T08:17:18.510Z,25.1
2017-06-25T08:18:17.718Z,25.1
2017-06-25T08:19:17.424Z,25.1
2017-06-25T08:20:16.758Z,25.1
2017-06-25T08:21:15.840Z,25.1
2017-06-25T08:22:15.500Z,25.1
2017-06-25T08:23:15.206Z,25.1
2017-06-25T08:24:14.402Z,25.1
2017-06-25T08:25:14.105Z,25.1
2017-06-25T08:26:13.557Z,25.2
2017-06-25T08:27:12.759Z,25.2
2017-06-25T08:28:11.962Z,25.2
2017-06-25T08:29:12.109Z,25.2
2017-06-25T08:30:10.807Z,25.2
2017-06-25T08:31:10.509Z,25.2
2017-06-25T08:32:09.850Z,25.2
2017-06-25T08:33:09.060Z,25.2
2017-06-25T08:34:08.305Z,25.1
2017-06-25T08:35:07.999Z,25.1
2017-06-25T08:36:07.585Z,25.1
2017-06-25T08:37:06.783Z,25.1
2017-06-25T08:38:06.489Z,25.1
2017-06-25T08:39:05.696Z,25.1
2017-06-25T08:40:05.170Z,25.1
2017-06-25T08:41:04.682Z,25
2017-06-25T08:42:04.401Z,25
2017-06-25T08:43:03.856Z,25
2017-06-25T08:44:03.065Z,25
2017-06-25T08:45:02.273Z,25
2017-06-25T08:46:01.744Z,25
2017-06-25T08:47:01.329Z,25
2017-06-25T08:48:00.530Z,25
2017-06-25T08:49:00.239Z,25
2017-06-25T08:49:59.431Z,25
2017-06-25T08:50:59.133Z,25
2017-06-25T08:51:58.216Z,25
2017-06-25T08:52:57.915Z,25
2017-06-25T08:53:56.993Z,25.1
2017-06-25T08:57:55.118Z,25.2
2017-06-25T08:58:54.757Z,25.2
2017-06-25T08:59:53.959Z,25.3
2017-06-25T09:00:53.044Z,25.3
2017-06-25T09:01:52.756Z,25.4
2017-06-25T09:02:52.224Z,25.5
2017-06-25T09:03:52.178Z,25.5
2017-06-25T09:04:50.874Z,25.5
2017-06-25T09:05:50.581Z,25.5
2017-06-25T09:06:49.783Z,25.5
2017-06-25T09:07:49.369Z,25.5
2017-06-25T09:08:48.952Z,25.5
2017-06-25T09:09:48.402Z,25.5
2017-06-25T09:10:47.608Z,25.5
2017-06-25T09:11:17.905Z,25.5
2017-06-25T09:12:46.683Z,25.5
2017-06-25T09:13:46.163Z,25.5
2017-06-25T09:14:45.363Z,25.5
2017-06-25T09:15:45.314Z,25.5
2017-06-25T09:16:44.509Z,25.5
2017-06-25T09:17:43.588Z,25.5
2017-06-25T09:18:43.172Z,25.5
2017-06-25T09:19:42.879Z,25.5
2017-06-25T09:20:42.077Z,25.5
2017-06-25T09:21:42.034Z,25.5
2017-06-25T09:22:12.049Z,25.5
2017-06-25T09:23:40.323Z,25.6
2017-06-25T09:24:40.024Z,25.6
2017-06-25T09:25:39.107Z,25.6
2017-06-25T09:26:38.814Z,25.7
2017-06-25T09:27:38.678Z,25.6
2017-06-25T09:28:37.882Z,25.6
2017-06-25T09:29:36.869Z,25.6
2017-06-25T09:30:36.574Z,25.6
2017-06-25T09:31:36.046Z,25.6
2017-06-25T09:32:35.643Z,25.6
2017-06-25T09:33:35.655Z,25.7
2017-06-25T09:34:34.350Z,25.7
2017-06-25T09:35:33.945Z,25.8
2017-06-25T09:36:34.097Z,25.8
2017-06-25T09:37:32.675Z,25.8
2017-06-25T09:38:32.257Z,25.8
2017-06-25T09:39:31.703Z,25.9
2017-06-25T09:40:30.908Z,26
2017-06-25T09:41:30.602Z,26
2017-06-25T09:42:29.797Z,26
2017-06-25T09:43:29.498Z,26
2017-06-25T09:45:28.719Z,26
2017-06-25T09:46:27.921Z,26
2017-06-25T09:47:27.015Z,26
2017-06-25T09:48:26.716Z,26
2017-06-25T09:49:25.916Z,26
2017-06-25T09:50:25.611Z,26
2017-06-25T09:51:25.119Z,26
2017-06-25T09:52:24.317Z,26
2017-06-25T09:54:23.406Z,26
2017-06-25T09:55:22.637Z,26.1
2017-06-25T09:56:22.353Z,26.1
2017-06-25T09:57:22.192Z,26
2017-06-25T09:58:21.273Z,26
2017-06-25T09:59:20.863Z,26
2017-06-25T10:00:20.059Z,26
2017-06-25T10:01:19.647Z,26
2017-06-25T10:02:18.848Z,26
2017-06-25T10:03:18.681Z,25.9
2017-06-25T10:04:18.329Z,25.9
2017-06-25T10:05:17.530Z,25.9
2017-06-25T10:06:16.737Z,25.9
2017-06-25T10:07:16.439Z,25.8
2017-06-25T10:08:15.644Z,25.8
2017-06-25T10:09:15.602Z,25.8
2017-06-25T10:10:14.690Z,25.9
2017-06-25T10:11:14.356Z,25.9
2017-06-25T10:12:13.552Z,25.8
2017-06-25T10:13:13.245Z,25.8
2017-06-25T10:14:12.321Z,25.8
2017-06-25T10:15:12.211Z,25.8
2017-06-25T10:16:11.298Z,25.8
2017-06-25T10:17:11.032Z,25.8
2017-06-25T10:18:10.109Z,25.8
2017-06-25T10:19:09.813Z,25.8
2017-06-25T10:20:09.521Z,25.8
2017-06-25T10:21:08.857Z,25.8
2017-06-25T10:22:08.054Z,25.8
2017-06-25T10:23:07.764Z,25.8
2017-06-25T10:24:06.851Z,25.7
2017-06-25T10:25:06.620Z,25.7
2017-06-25T10:26:06.095Z,25.7
2017-06-25T10:27:05.821Z,25.7
2017-06-25T10:28:05.028Z,25.7
2017-06-25T10:29:04.296Z,25.7
2017-06-25T10:30:03.532Z,25.7
2017-06-25T10:31:03.117Z,25.7
2017-06-25T10:32:03.383Z,25.7
2017-06-25T10:33:02.331Z,25.7
2017-06-25T10:34:01.978Z,25.7
2017-06-25T10:35:01.180Z,25.7
2017-06-25T10:36:00.777Z,25.7
2017-06-25T10:36:59.859Z,25.7
2017-06-25T10:37:59.565Z,25.7
2017-06-25T10:38:59.399Z,25.7
2017-06-25T10:39:58.656Z,25.7
2017-06-25T10:40:57.848Z,25.7
2017-06-25T10:41:57.432Z,25.7
2017-06-25T10:42:57.132Z,25.7
2017-06-25T10:43:56.286Z,25.8
2017-06-25T10:44:56.119Z,25.7
2017-06-25T10:45:55.315Z,25.7
2017-06-25T10:46:54.897Z,25.7
2017-06-25T10:47:53.974Z,25.7
2017-06-25T10:48:53.554Z,25.7
2017-06-25T10:49:53.136Z,25.7
2017-06-25T10:50:52.594Z,25.7
2017-06-25T10:51:51.796Z,25.6
2017-06-25T10:52:51.505Z,25.6
2017-06-25T10:53:51.213Z,25.6
2017-06-25T10:54:50.403Z,25.6
2017-06-25T10:56:49.782Z,25.5
2017-06-25T10:57:48.864Z,25.5
2017-06-25T10:58:47.823Z,25.5
2017-06-25T10:59:47.468Z,25.6
2017-06-25T11:00:47.176Z,25.6
2017-06-25T11:02:46.481Z,25.6
2017-06-25T11:03:45.676Z,25.6
2017-06-25T11:05:44.263Z,25.6
2017-06-25T11:06:43.966Z,25.6
2017-06-25T11:07:43.208Z,25.6
2017-06-25T11:08:42.687Z,25.6
2017-06-25T11:09:42.292Z,25.7
2017-06-25T11:10:41.518Z,25.7
2017-06-25T11:11:41.221Z,25.7
2017-06-25T11:12:40.808Z,25.7
2017-06-25T11:13:40.006Z,25.7
2017-06-25T11:14:39.961Z,25.7
2017-06-25T11:15:39.100Z,25.7
2017-06-25T11:16:38.571Z,25.7
2017-06-25T11:17:37.655Z,25.7
2017-06-25T11:18:37.126Z,25.6
2017-06-25T11:19:36.712Z,25.6
2017-06-25T11:20:36.673Z,25.6
2017-06-25T11:21:35.874Z,25.6
2017-06-25T11:22:35.073Z,25.6
2017-06-25T11:23:34.774Z,25.5
2017-06-25T11:24:33.851Z,25.5
2017-06-25T11:25:33.550Z,25.5
2017-06-25T11:26:32.882Z,25.6
2017-06-25T11:27:32.588Z,25.6
2017-06-25T11:28:31.790Z,25.6
2017-06-25T11:29:31.381Z,25.6
2017-06-25T11:30:30.582Z,25.6
2017-06-25T11:31:30.285Z,25.6
2017-06-25T11:32:29.617Z,25.6
2017-06-25T11:33:29.199Z,25.6
2017-06-25T11:34:28.866Z,25.7
2017-06-25T11:35:27.947Z,25.7
2017-06-25T11:36:27.298Z,25.7
2017-06-25T11:37:27.001Z,25.7
2017-06-25T11:38:26.455Z,25.7
2017-06-25T11:39:26.031Z,25.6
2017-06-25T11:40:25.114Z,25.7
2017-06-25T11:41:25.160Z,25.6
2017-06-25T11:42:24.248Z,25.7
2017-06-25T11:43:23.594Z,25.6
2017-06-25T11:44:23.548Z,25.7
2017-06-25T11:45:22.747Z,25.7
2017-06-25T11:46:21.944Z,25.7
2017-06-25T11:47:21.526Z,25.7
2017-06-25T11:48:20.726Z,25.7
2017-06-25T11:49:20.321Z,25.7
2017-06-25T11:50:20.841Z,25.7
2017-06-25T11:51:19.531Z,25.7
2017-06-25T11:52:18.730Z,25.7
2017-06-25T11:53:18.433Z,25.7
2017-06-25T11:54:17.900Z,25.8
2017-06-25T11:55:17.097Z,25.8
2017-06-25T11:57:16.321Z,25.8
2017-06-25T11:58:15.402Z,25.8
2017-06-25T11:59:15.105Z,25.8
2017-06-25T12:00:14.891Z,25.8
2017-06-25T12:02:13.482Z,25.8
2017-06-25T12:03:12.866Z,25.8
2017-06-25T12:04:11.952Z,25.8
2017-06-25T12:05:11.553Z,25.8
2017-06-25T12:06:11.262Z,25.8
2017-06-25T12:07:10.346Z,25.8
2017-06-25T12:08:10.045Z,25.8
2017-06-25T12:09:09.761Z,25.8
2017-06-25T12:10:09.014Z,25.8
2017-06-25T12:11:08.719Z,25.8
2017-06-25T12:12:07.918Z,25.8
2017-06-25T12:13:07.506Z,25.9
2017-06-25T12:14:06.707Z,25.9
2017-06-25T12:15:06.541Z,25.9
2017-06-25T12:16:06.037Z,25.9
2017-06-25T12:17:04.883Z,25.9
2017-06-25T12:18:04.585Z,25.9
2017-06-25T12:19:04.169Z,25.9
2017-06-25T12:20:03.906Z,25.9
2017-06-25T12:21:03.244Z,25.9
2017-06-25T12:22:03.395Z,25.9
2017-06-25T12:23:02.097Z,25.9
2017-06-25T12:24:01.182Z,26
2017-06-25T12:25:00.766Z,26
2017-06-25T12:26:00.470Z,26
2017-06-25T12:27:00.487Z,26
2017-06-25T12:27:59.570Z,25.9
2017-06-25T12:28:58.766Z,25.9
2017-06-25T12:29:58.351Z,25.9
2017-06-25T12:30:57.548Z,25.9
2017-06-25T12:31:57.249Z,25.9
2017-06-25T12:32:56.464Z,26
2017-06-25T12:33:56.168Z,26
2017-06-25T12:34:55.248Z,26
2017-06-25T12:35:54.948Z,26
2017-06-25T12:36:54.414Z,26
2017-06-25T12:37:54.113Z,26
2017-06-25T12:38:53.449Z,26
2017-06-25T12:39:52.907Z,26
2017-06-25T12:40:53.059Z,26
2017-06-25T12:41:51.637Z,26
2017-06-25T12:42:51.342Z,26
2017-06-25T12:44:50.694Z,26
2017-06-25T12:45:49.890Z,25.9
2017-06-25T12:47:49.048Z,25.9
2017-06-25T12:48:48.125Z,25.9
2017-06-25T12:49:47.845Z,25.8
2017-06-25T12:50:47.298Z,25.8
2017-06-25T12:51:46.504Z,25.8
2017-06-25T12:52:46.018Z,25.8
2017-06-25T12:53:45.722Z,25.8
2017-06-25T12:54:44.682Z,25.8
2017-06-25T12:55:44.384Z,25.8
2017-06-25T12:56:44.338Z,25.9
2017-06-25T12:57:43.421Z,25.9
2017-06-25T12:58:43.120Z,25.9
2017-06-25T13:00:41.714Z,25.9
2017-06-25T13:01:41.306Z,26
2017-06-25T13:02:41.138Z,26
2017-06-25T13:03:40.334Z,26
2017-06-25T13:04:39.683Z,26
2017-06-25T13:05:39.384Z,25.9
2017-06-25T13:06:38.579Z,25.9
2017-06-25T13:07:38.046Z,25.9
2017-06-25T13:08:38.048Z,25.9
2017-06-25T13:09:37.131Z,25.9
2017-06-25T13:10:36.851Z,25.9
2017-06-25T13:11:36.051Z,25.9
2017-06-25T13:12:35.754Z,25.9
2017-06-25T13:13:34.592Z,25.9
2017-06-25T13:14:34.552Z,25.9
2017-06-25T13:15:34.020Z,25.9
2017-06-25T13:16:33.667Z,25.9
2017-06-25T13:17:33.128Z,25.9
2017-06-25T13:18:32.213Z,25.9
2017-06-25T13:19:31.810Z,25.9
2017-06-25T13:20:31.772Z,25.9
2017-06-25T13:22:30.483Z,25.8
2017-06-25T13:23:29.699Z,25.8
2017-06-25T13:24:29.297Z,25.8
2017-06-25T13:25:28.894Z,25.8
2017-06-25T13:26:28.348Z,25.8
2017-06-25T13:27:27.550Z,25.8
2017-06-25T13:28:27.139Z,25.8
2017-06-25T13:29:27.404Z,25.8
2017-06-25T13:30:26.098Z,25.8
2017-06-25T13:31:25.804Z,25.9
2017-06-25T13:32:25.641Z,25.9
2017-06-25T13:33:24.733Z,25.9
2017-06-25T13:34:24.325Z,25.9
2017-06-25T13:35:23.527Z,25.9
2017-06-25T13:36:23.249Z,25.9
2017-06-25T13:37:22.447Z,25.8
2017-06-25T13:38:22.301Z,25.8
2017-06-25T13:39:21.503Z,25.9
2017-06-25T13:40:21.108Z,25.9
2017-06-25T13:41:20.809Z,25.9
2017-06-25T13:42:20.019Z,25.9
2017-06-25T13:43:19.488Z,25.9
2017-06-25T13:44:19.214Z,25.9
2017-06-25T13:45:18.691Z,25.9
2017-06-25T13:46:18.274Z,25.9
2017-06-25T13:47:17.470Z,25.9